Time;durP1;ratioP1;P1;durP2;ratioP2;P2;SDS_P1;SDS_P2;PMS_P1;PMS_P2;Temp;Humidity;BMP_temperature;BMP_pressure;BME280_temperature;BME280_humidity;BME280_pressure;Samples;Min_cycle;Max_cycle;Signal;HPM_P1;HPM_P2
2024/01/05 00:01:10;;;;;;;2.95;1.48;;;4.50;99.90;;;;;;5045415;28;20493;-72
2024/01/05 00:03:35;;;;;;;1.88;0.85;;;4.40;99.90;;;;;;5028901;28;20036;-72
2024/01/05 00:06:01;;;;;;;2.53;1.15;;;4.50;99.90;;;;;;5047793;28;20064;-72
2024/01/05 00:08:26;;;;;;;1.52;0.50;;;4.40;99.90;;;;;;5046538;28;20036;-72
2024/01/05 00:10:52;;;;;;;1.70;0.88;;;4.40;99.90;;;;;;5041764;28;20097;-72
2024/01/05 00:13:18;;;;;;;1.38;0.90;;;4.40;99.90;;;;;;5024446;28;20478;-72
2024/01/05 00:15:43;;;;;;;3.72;0.90;;;4.40;99.90;;;;;;5047588;28;20029;-72
2024/01/05 00:18:09;;;;;;;1.95;1.00;;;4.40;99.90;;;;;;5027247;28;20557;-72
2024/01/05 00:20:35;;;;;;;2.25;1.00;;;4.40;99.90;;;;;;5028100;28;20056;-72
2024/01/05 00:23:01;;;;;;;1.83;0.82;;;4.40;99.90;;;;;;5059042;28;20072;-72
2024/01/05 00:25:26;;;;;;;2.05;1.05;;;4.30;99.90;;;;;;5046237;28;20036;-72
2024/01/05 00:27:52;;;;;;;2.65;0.80;;;4.30;99.90;;;;;;5042409;28;21235;-72
2024/01/05 00:30:19;;;;;;;1.88;0.65;;;4.40;99.90;;;;;;5046985;28;20153;-72
2024/01/05 00:32:45;;;;;;;3.97;0.70;;;4.40;99.90;;;;;;5050507;28;20045;-72
2024/01/05 00:35:10;;;;;;;2.65;1.35;;;4.40;99.90;;;;;;5031717;28;20556;-72
2024/01/05 00:37:36;;;;;;;2.67;0.98;;;4.40;99.90;;;;;;5026348;28;20068;-72
2024/01/05 00:40:03;;;;;;;3.00;1.13;;;4.30;99.90;;;;;;5043801;28;20086;-72
2024/01/05 00:42:29;;;;;;;3.22;1.05;;;4.40;99.90;;;;;;5044993;28;20041;-72
2024/01/05 00:44:54;;;;;;;2.40;1.20;;;4.40;99.90;;;;;;5045011;28;20043;-72
2024/01/05 00:47:20;;;;;;;2.50;0.90;;;4.40;99.90;;;;;;5045063;28;20438;-72
2024/01/05 00:49:45;;;;;;;3.45;1.05;;;4.40;99.90;;;;;;5046684;28;20562;-72
2024/01/05 00:52:12;;;;;;;2.58;0.90;;;4.40;99.90;;;;;;5047052;28;21906;-72
2024/01/05 00:54:39;;;;;;;2.58;0.85;;;4.40;99.90;;;;;;5023245;28;20036;-72
2024/01/05 00:57:05;;;;;;;2.88;1.50;;;4.40;99.90;;;;;;5028055;28;20052;-72
2024/01/05 00:59:30;;;;;;;4.10;1.60;;;4.30;99.90;;;;;;5045711;28;20040;-72
2024/01/05 01:01:57;;;;;;;3.97;1.20;;;4.40;99.90;;;;;;5051457;28;20146;-72
2024/01/05 01:04:23;;;;;;;3.58;1.38;;;4.30;99.90;;;;;;5049200;28;20154;-72
2024/01/05 01:06:48;;;;;;;1.88;0.70;;;4.30;99.90;;;;;;5034372;28;20409;-72
2024/01/05 01:09:14;;;;;;;3.90;1.52;;;4.30;99.90;;;;;;5031741;28;20045;-72
2024/01/05 01:11:40;;;;;;;2.63;1.25;;;4.30;99.90;;;;;;5048303;28;20063;-72
2024/01/05 01:14:06;;;;;;;2.83;1.42;;;4.30;99.90;;;;;;5047514;28;20133;-72
2024/01/05 01:16:32;;;;;;;2.60;1.45;;;4.20;99.90;;;;;;5049756;28;20516;-71
2024/01/05 01:18:58;;;;;;;2.65;1.15;;;4.20;99.90;;;;;;5047428;28;20872;-72
2024/01/05 01:21:23;;;;;;;5.53;1.98;;;4.30;99.90;;;;;;5045949;28;20115;-72
2024/01/05 01:23:51;;;;;;;3.58;1.50;;;4.30;99.90;;;;;;5048676;28;20182;-72
2024/01/05 01:26:17;;;;;;;2.28;1.40;;;4.30;99.90;;;;;;5065238;28;20044;-72
2024/01/05 01:28:43;;;;;;;4.63;1.27;;;4.30;99.90;;;;;;5048386;28;20040;-72
2024/01/05 01:31:08;;;;;;;3.97;1.58;;;4.30;99.90;;;;;;5033536;28;20036;-72
2024/01/05 01:33:34;;;;;;;3.75;1.67;;;4.30;99.90;;;;;;5052824;28;20036;-72
2024/01/05 01:35:59;;;;;;;4.60;1.85;;;4.30;99.90;;;;;;5053317;28;20037;-72
2024/01/05 01:38:25;;;;;;;3.72;1.27;;;4.30;99.90;;;;;;5027901;28;20063;-72
2024/01/05 01:40:54;;;;;;;4.07;1.65;;;4.30;99.90;;;;;;5049937;28;20086;-72
2024/01/05 01:43:26;;;;;;;3.92;1.30;;;4.20;99.90;;;;;;5050209;28;20046;-72
2024/01/05 01:45:55;;;;;;;3.20;1.65;;;4.30;99.90;;;;;;5046797;28;20036;-72
2024/01/05 01:48:21;;;;;;;5.13;1.63;;;4.30;99.90;;;;;;5049786;28;20036;-72
2024/01/05 01:50:48;;;;;;;2.80;1.52;;;4.30;99.90;;;;;;5047915;28;20537;-72
2024/01/05 01:53:18;;;;;;;3.88;1.42;;;4.20;99.90;;;;;;5029283;28;20036;-72
2024/01/05 01:55:45;;;;;;;2.22;1.00;;;4.20;99.90;;;;;;5047904;28;20040;-72
2024/01/05 01:58:12;;;;;;;5.43;1.15;;;4.20;99.90;;;;;;5030701;28;20072;-72
2024/01/05 02:00:38;;;;;;;3.72;1.60;;;4.20;99.90;;;;;;5051361;28;20064;-72
2024/01/05 02:03:04;;;;;;;3.42;1.30;;;4.20;99.90;;;;;;5027475;28;20064;-72
2024/01/05 02:05:29;;;;;;;7.68;2.53;;;4.20;99.90;;;;;;5049403;28;20332;-72
2024/01/05 02:07:56;;;;;;;3.58;1.63;;;4.20;99.90;;;;;;5064867;28;20041;-72
2024/01/05 02:10:23;;;;;;;3.17;1.63;;;4.20;99.90;;;;;;5045828;28;20036;-72
2024/01/05 02:12:49;;;;;;;2.88;1.35;;;4.20;99.90;;;;;;5029899;28;20040;-72
2024/01/05 02:15:15;;;;;;;6.20;2.58;;;4.20;99.90;;;;;;5044338;28;20040;-72
2024/01/05 02:17:41;;;;;;;3.80;1.48;;;4.20;99.90;;;;;;5050471;28;20066;-72
2024/01/05 02:20:07;;;;;;;3.95;1.27;;;4.20;99.90;;;;;;5043714;28;20490;-72
2024/01/05 02:22:35;;;;;;;3.58;1.42;;;4.20;99.90;;;;;;5043821;28;20119;-72
2024/01/05 02:25:01;;;;;;;3.58;1.73;;;4.20;99.90;;;;;;5046997;28;20075;-72
2024/01/05 02:27:27;;;;;;;5.35;1.33;;;4.20;99.90;;;;;;5044547;28;22102;-72
2024/01/05 02:29:53;;;;;;;6.45;1.20;;;4.20;99.90;;;;;;5044633;28;20059;-72
2024/01/05 02:32:18;;;;;;;5.35;1.40;;;4.20;99.90;;;;;;5044579;28;20513;-72
2024/01/05 02:34:44;;;;;;;6.20;1.70;;;4.20;99.90;;;;;;5034900;28;20043;-72
2024/01/05 02:37:10;;;;;;;4.30;1.85;;;4.10;99.90;;;;;;5045429;28;20047;-72
2024/01/05 02:39:36;;;;;;;3.00;1.52;;;4.10;99.90;;;;;;5048723;28;20087;-72
2024/01/05 02:42:01;;;;;;;2.50;1.23;;;4.10;99.90;;;;;;5045391;28;20032;-72
2024/01/05 02:44:27;;;;;;;3.38;1.42;;;4.10;99.90;;;;;;5046762;28;20044;-72
2024/01/05 02:46:53;;;;;;;3.38;1.30;;;4.10;99.90;;;;;;5045082;28;20055;-72
2024/01/05 02:49:18;;;;;;;5.43;1.92;;;4.10;99.90;;;;;;5045014;28;20051;-72
2024/01/05 02:51:44;;;;;;;4.85;1.55;;;4.10;99.90;;;;;;5029414;28;20527;-72
2024/01/05 02:54:10;;;;;;;6.05;1.52;;;4.10;99.90;;;;;;5046716;28;20063;-72
2024/01/05 02:56:36;;;;;;;4.13;1.20;;;4.10;99.90;;;;;;5045819;28;20040;-72
2024/01/05 02:59:04;;;;;;;6.13;2.20;;;4.20;99.90;;;;;;5027781;28;20039;-72
2024/01/05 03:01:30;;;;;;;3.03;1.35;;;4.10;99.90;;;;;;5045885;28;20070;-72
2024/01/05 03:03:57;;;;;;;3.47;1.30;;;4.10;99.90;;;;;;5047289;28;20068;-72
2024/01/05 03:06:23;;;;;;;3.50;1.83;;;4.10;99.90;;;;;;5050770;28;20432;-72
2024/01/05 03:08:49;;;;;;;3.17;1.67;;;4.10;99.90;;;;;;5041171;28;20041;-72
2024/01/05 03:11:15;;;;;;;4.07;1.60;;;4.10;99.90;;;;;;5043288;28;20383;-72
2024/01/05 03:13:41;;;;;;;1.88;1.00;;;4.10;99.90;;;;;;5044022;28;20032;-72
2024/01/05 03:16:07;;;;;;;6.10;2.30;;;4.10;99.90;;;;;;5046351;28;20040;-72
2024/01/05 03:18:33;;;;;;;4.80;1.40;;;4.10;99.90;;;;;;5030026;28;20048;-72
2024/01/05 03:20:59;;;;;;;3.92;1.55;;;4.10;99.90;;;;;;5030209;28;20041;-72
2024/01/05 03:23:24;;;;;;;7.22;1.85;;;4.10;99.90;;;;;;5025733;28;20098;-72
2024/01/05 03:25:53;;;;;;;5.28;1.55;;;4.10;99.90;;;;;;5046662;28;20505;-72
2024/01/05 03:28:19;;;;;;;3.20;1.52;;;4.20;99.90;;;;;;5031293;28;20054;-72
2024/01/05 03:30:44;;;;;;;5.80;1.58;;;4.20;99.90;;;;;;5047280;28;20040;-72
2024/01/05 03:33:10;;;;;;;4.75;1.35;;;4.20;99.90;;;;;;5046313;28;20036;-72
2024/01/05 03:35:36;;;;;;;2.67;1.15;;;4.20;99.90;;;;;;5049009;28;20058;-71
2024/01/05 03:38:02;;;;;;;1.80;1.02;;;4.20;99.90;;;;;;5026004;28;20033;-72
2024/01/05 03:40:28;;;;;;;4.00;2.03;;;4.20;99.90;;;;;;5031055;28;20094;-72
2024/01/05 03:42:54;;;;;;;4.53;1.83;;;4.20;99.90;;;;;;5045990;28;20122;-72
2024/01/05 03:45:20;;;;;;;3.65;1.73;;;4.20;99.90;;;;;;5044635;28;20115;-72
2024/01/05 03:47:45;;;;;;;4.22;1.63;;;4.20;99.90;;;;;;5045709;28;20137;-72
2024/01/05 03:50:11;;;;;;;6.07;2.17;;;4.20;99.90;;;;;;5045666;28;20044;-72
2024/01/05 03:52:36;;;;;;;2.92;1.45;;;4.20;99.90;;;;;;5044170;28;20032;-72
2024/01/05 03:55:03;;;;;;;3.50;1.77;;;4.20;99.90;;;;;;5047160;28;20510;-72
2024/01/05 03:57:28;;;;;;;5.10;1.50;;;4.20;99.90;;;;;;5029596;28;20748;-72
2024/01/05 03:59:54;;;;;;;3.40;1.55;;;4.20;99.90;;;;;;5048164;28;20055;-72
2024/01/05 04:02:20;;;;;;;7.25;2.13;;;4.20;99.90;;;;;;5025548;28;20047;-72
2024/01/05 04:04:45;;;;;;;2.30;1.50;;;4.10;99.90;;;;;;5048938;28;20032;-72
2024/01/05 04:07:11;;;;;;;5.53;1.67;;;4.10;99.90;;;;;;5044464;28;20106;-72
2024/01/05 04:09:38;;;;;;;4.07;1.45;;;4.20;99.90;;;;;;5047662;28;20169;-72
2024/01/05 04:12:04;;;;;;;2.78;1.25;;;4.20;99.90;;;;;;5027373;28;20068;-72
2024/01/05 04:14:29;;;;;;;3.97;1.40;;;4.20;99.90;;;;;;5047615;28;20195;-72
2024/01/05 04:16:55;;;;;;;5.28;1.83;;;4.20;99.90;;;;;;5038029;28;20032;-72
2024/01/05 04:19:20;;;;;;;3.85;1.58;;;4.20;99.90;;;;;;5030544;28;20039;-72
2024/01/05 04:21:46;;;;;;;3.35;1.42;;;4.20;99.90;;;;;;5045271;28;20047;-72
2024/01/05 04:24:12;;;;;;;2.70;1.08;;;4.20;99.90;;;;;;5037021;28;20089;-72
2024/01/05 04:26:38;;;;;;;5.13;1.70;;;4.20;99.90;;;;;;5028095;28;20041;-72
2024/01/05 04:29:03;;;;;;;3.20;1.10;;;4.30;99.90;;;;;;5028763;28;20031;-72
2024/01/05 04:31:29;;;;;;;2.47;1.27;;;4.20;99.90;;;;;;5044118;28;20028;-72
2024/01/05 04:33:55;;;;;;;2.97;1.13;;;4.30;99.90;;;;;;5045197;28;20040;-72
2024/01/05 04:36:20;;;;;;;3.50;1.60;;;4.30;99.90;;;;;;5053599;28;20512;-72
2024/01/05 04:38:46;;;;;;;4.15;1.90;;;4.30;99.90;;;;;;5032461;28;20036;-72
2024/01/05 04:41:14;;;;;;;2.83;1.23;;;4.20;99.90;;;;;;5047604;28;20701;-72
2024/01/05 04:43:40;;;;;;;2.53;1.80;;;4.30;99.90;;;;;;5032458;28;20040;-72
2024/01/05 04:46:07;;;;;;;3.20;1.30;;;4.30;99.90;;;;;;5047874;28;20086;-72
2024/01/05 04:48:33;;;;;;;3.15;1.55;;;4.30;99.90;;;;;;5065750;28;20047;-72
2024/01/05 04:50:59;;;;;;;2.22;1.27;;;4.30;99.90;;;;;;5049982;28;20032;-72
2024/01/05 04:53:25;;;;;;;3.55;1.63;;;4.30;99.90;;;;;;5048408;28;20040;-72
2024/01/05 04:55:51;;;;;;;3.28;1.23;;;4.30;99.90;;;;;;5047987;28;20035;-72
2024/01/05 04:58:16;;;;;;;2.92;1.63;;;4.30;99.90;;;;;;5047633;28;20048;-72
2024/01/05 05:00:42;;;;;;;3.13;0.95;;;4.30;99.90;;;;;;5032210;28;20121;-72
2024/01/05 05:03:09;;;;;;;2.58;1.30;;;4.30;99.90;;;;;;5049281;28;20086;-72
2024/01/05 05:05:36;;;;;;;3.03;1.30;;;4.30;99.90;;;;;;5033460;28;20048;-72
2024/01/05 05:08:01;;;;;;;2.55;1.05;;;4.30;99.90;;;;;;5029097;28;20044;-72
2024/01/05 05:10:27;;;;;;;3.30;1.25;;;4.30;99.90;;;;;;5050554;28;20048;-72
2024/01/05 05:12:53;;;;;;;4.07;1.75;;;4.30;99.90;;;;;;5048528;28;20138;-72
2024/01/05 05:15:19;;;;;;;3.65;1.80;;;4.30;99.90;;;;;;5053197;28;20035;-72
2024/01/05 05:17:45;;;;;;;3.42;1.58;;;4.40;99.90;;;;;;5033568;28;20047;-72
2024/01/05 05:20:11;;;;;;;6.75;1.65;;;4.40;99.90;;;;;;5035070;28;20116;-71
2024/01/05 05:22:37;;;;;;;3.47;1.38;;;4.40;99.90;;;;;;5034340;28;20040;-72
2024/01/05 05:25:03;;;;;;;4.70;1.40;;;4.40;99.90;;;;;;5045576;28;20407;-72
2024/01/05 05:27:28;;;;;;;4.82;1.80;;;4.40;99.90;;;;;;5047794;28;20036;-72
2024/01/05 05:29:54;;;;;;;5.75;1.92;;;4.40;99.90;;;;;;5048837;28;20266;-72
2024/01/05 05:32:20;;;;;;;4.18;1.15;;;4.40;99.90;;;;;;5031168;28;20697;-72
2024/01/05 05:34:45;;;;;;;6.68;1.70;;;4.40;99.90;;;;;;5050190;28;20120;-72
2024/01/05 05:37:11;;;;;;;3.70;1.38;;;4.40;99.90;;;;;;5043303;28;20482;-72
2024/01/05 05:39:37;;;;;;;2.47;1.10;;;4.40;99.90;;;;;;5033173;28;20083;-72
2024/01/05 05:42:03;;;;;;;4.30;1.55;;;4.40;99.90;;;;;;5050070;28;20040;-72
2024/01/05 05:44:29;;;;;;;3.35;1.48;;;4.50;99.90;;;;;;5045454;28;20102;-72
2024/01/05 05:46:56;;;;;;;2.42;1.23;;;4.50;99.90;;;;;;5048946;28;20040;-72
2024/01/05 05:49:21;;;;;;;4.32;1.92;;;4.50;99.90;;;;;;5046923;28;20181;-72
2024/01/05 05:51:47;;;;;;;3.28;1.75;;;4.50;99.90;;;;;;5048544;28;20131;-72
2024/01/05 05:54:13;;;;;;;7.05;1.75;;;4.50;99.90;;;;;;5044705;28;20174;-72
2024/01/05 05:56:39;;;;;;;4.47;1.90;;;4.50;99.90;;;;;;5031715;28;20133;-72
2024/01/05 05:59:05;;;;;;;2.88;0.80;;;4.50;99.90;;;;;;5045948;28;20040;-72
2024/01/05 06:01:31;;;;;;;2.20;1.20;;;4.50;99.90;;;;;;5027663;28;20402;-72
2024/01/05 06:03:57;;;;;;;3.58;1.08;;;4.50;99.90;;;;;;5046921;28;20028;-72
2024/01/05 06:06:24;;;;;;;4.25;1.58;;;4.50;99.90;;;;;;5048486;28;21710;-72
2024/01/05 06:08:51;;;;;;;4.00;1.85;;;4.50;99.90;;;;;;5042130;28;20044;-72
2024/01/05 06:11:18;;;;;;;4.35;1.95;;;4.50;99.90;;;;;;5044890;28;20036;-72
2024/01/05 06:13:44;;;;;;;5.70;1.63;;;4.50;99.90;;;;;;5046507;28;20043;-72
2024/01/05 06:16:11;;;;;;;4.15;1.80;;;4.50;99.90;;;;;;5029843;28;20055;-72
2024/01/05 06:18:37;;;;;;;4.07;1.90;;;4.60;99.90;;;;;;5047687;28;20036;-72
2024/01/05 06:21:03;;;;;;;5.05;1.65;;;4.60;99.90;;;;;;5029878;28;20390;-72
2024/01/05 06:23:30;;;;;;;4.93;1.95;;;4.60;99.90;;;;;;5028884;28;20032;-72
2024/01/05 06:25:56;;;;;;;3.78;1.92;;;4.60;99.90;;;;;;5050380;28;20421;-72
2024/01/05 06:28:21;;;;;;;3.22;1.10;;;4.60;99.90;;;;;;5032821;28;20036;-72
2024/01/05 06:30:47;;;;;;;9.13;1.88;;;4.60;99.90;;;;;;5049546;28;20500;-72
2024/01/05 06:33:13;;;;;;;4.53;1.65;;;4.60;99.90;;;;;;5048298;28;20510;-72
2024/01/05 06:35:38;;;;;;;4.25;1.80;;;4.60;99.90;;;;;;5047440;28;20047;-72
2024/01/05 06:38:04;;;;;;;3.08;1.20;;;4.60;99.90;;;;;;5029362;28;20051;-72
2024/01/05 06:40:30;;;;;;;5.25;2.25;;;4.60;99.90;;;;;;5029671;28;20044;-72
2024/01/05 06:42:57;;;;;;;3.78;1.83;;;4.50;99.90;;;;;;5029564;28;20082;-72
2024/01/05 06:45:23;;;;;;;6.60;1.48;;;4.60;99.90;;;;;;5048033;28;20052;-72
2024/01/05 06:47:49;;;;;;;3.33;1.63;;;4.60;99.90;;;;;;5026203;28;20058;-72
2024/01/05 06:50:14;;;;;;;5.80;2.33;;;4.60;99.90;;;;;;5049496;28;20036;-72
2024/01/05 06:52:40;;;;;;;4.68;2.00;;;4.60;99.90;;;;;;5064596;28;20028;-72
2024/01/05 06:55:06;;;;;;;4.80;1.80;;;4.60;99.90;;;;;;5050717;28;20048;-72
2024/01/05 06:57:35;;;;;;;3.88;1.83;;;4.60;99.90;;;;;;5028887;28;20588;-72
2024/01/05 07:00:09;;;;;;;5.20;2.15;;;4.60;99.90;;;;;;5048012;28;20052;-72
2024/01/05 07:02:35;;;;;;;6.53;2.00;;;4.60;99.90;;;;;;5045910;28;20056;-73
2024/01/05 07:05:03;;;;;;;5.15;1.88;;;4.70;99.90;;;;;;5026317;28;20040;-73
2024/01/05 07:07:29;;;;;;;5.03;2.10;;;4.70;99.90;;;;;;5028033;28;20127;-73
2024/01/05 07:09:54;;;;;;;4.32;1.98;;;4.70;99.90;;;;;;5047875;28;20493;-73
2024/01/05 07:12:20;;;;;;;4.40;1.98;;;4.70;99.90;;;;;;5045631;28;20513;-73
2024/01/05 07:14:49;;;;;;;5.88;1.73;;;4.70;99.90;;;;;;5029309;28;20028;-73
2024/01/05 07:17:15;;;;;;;5.10;2.13;;;4.70;99.90;;;;;;5029838;28;20051;-73
2024/01/05 07:19:41;;;;;;;3.00;1.70;;;4.70;99.90;;;;;;5030299;28;20519;-73
2024/01/05 07:22:07;;;;;;;4.57;2.17;;;4.70;99.90;;;;;;5044448;28;20074;-73
2024/01/05 07:24:35;;;;;;;4.45;1.92;;;4.70;99.90;;;;;;5043804;28;20067;-73
2024/01/05 07:27:01;;;;;;;4.45;1.98;;;4.70;99.90;;;;;;5045576;28;20551;-73
2024/01/05 07:29:26;;;;;;;4.25;1.65;;;4.70;99.90;;;;;;5048493;28;20029;-73
2024/01/05 07:31:52;;;;;;;5.55;2.67;;;4.70;99.90;;;;;;5049917;28;20087;-73
2024/01/05 07:34:17;;;;;;;7.28;2.75;;;4.70;99.90;;;;;;5049405;28;20032;-73
2024/01/05 07:36:43;;;;;;;5.07;2.22;;;4.80;99.90;;;;;;5048546;28;20041;-73
2024/01/05 07:39:13;;;;;;;6.32;3.15;;;4.80;99.90;;;;;;5027985;28;20028;-73
2024/01/05 07:41:39;;;;;;;7.30;2.80;;;4.80;99.90;;;;;;5046139;28;20028;-73
2024/01/05 07:44:08;;;;;;;6.05;2.40;;;4.80;99.90;;;;;;5026686;28;20029;-73
2024/01/05 07:46:40;;;;;;;6.13;3.13;;;4.80;99.90;;;;;;5048167;28;20429;-73
2024/01/05 07:49:06;;;;;;;6.53;2.90;;;4.80;99.90;;;;;;5027348;28;20040;-73
2024/01/05 07:51:32;;;;;;;6.78;2.20;;;4.80;99.90;;;;;;5026105;28;20033;-73
2024/01/05 07:53:57;;;;;;;5.35;2.83;;;4.80;99.90;;;;;;5043708;28;20031;-73
2024/01/05 07:56:23;;;;;;;9.50;2.30;;;4.80;99.90;;;;;;5020980;28;20036;-73
2024/01/05 07:58:49;;;;;;;5.85;2.78;;;4.90;99.90;;;;;;5029462;28;20040;-73
2024/01/05 08:01:19;;;;;;;4.97;2.38;;;4.90;99.90;;;;;;5027227;28;20206;-72
2024/01/05 08:03:46;;;;;;;5.18;2.13;;;4.90;99.90;;;;;;5026789;28;20044;-73
2024/01/05 08:06:19;;;;;;;5.28;2.30;;;4.90;99.90;;;;;;5021045;28;20063;-73
2024/01/05 08:08:50;;;;;;;5.57;2.47;;;4.90;99.90;;;;;;5024706;28;20546;-73
2024/01/05 08:11:16;;;;;;;4.18;2.15;;;4.90;99.90;;;;;;5029416;28;20037;-73
2024/01/05 08:13:43;;;;;;;10.18;3.97;;;4.90;99.90;;;;;;5041455;28;20349;-73
2024/01/05 08:16:09;;;;;;;4.72;2.38;;;5.00;99.90;;;;;;5040443;28;20045;-73
2024/01/05 08:18:36;;;;;;;6.97;2.92;;;5.00;99.90;;;;;;5023794;28;20098;-73
2024/01/05 08:21:02;;;;;;;6.85;2.00;;;5.00;99.90;;;;;;5041382;28;20066;-72
2024/01/05 08:23:28;;;;;;;6.32;3.03;;;5.00;99.90;;;;;;5045073;28;20037;-73
2024/01/05 08:25:54;;;;;;;6.78;2.72;;;5.00;99.90;;;;;;5045988;28;20440;-73
2024/01/05 08:28:20;;;;;;;5.20;1.83;;;5.00;99.90;;;;;;5039776;28;20048;-73
2024/01/05 08:30:46;;;;;;;2.95;1.45;;;5.00;99.90;;;;;;5043718;28;20482;-72
2024/01/05 08:33:11;;;;;;;6.57;3.10;;;5.10;99.90;;;;;;5046564;28;20043;-73
2024/01/05 08:35:37;;;;;;;5.50;2.15;;;5.10;99.90;;;;;;5040432;28;20029;-73
2024/01/05 08:38:03;;;;;;;12.05;2.78;;;5.10;99.90;;;;;;5044744;28;20056;-73
2024/01/05 08:40:29;;;;;;;6.82;2.63;;;5.10;99.90;;;;;;5044098;28;20045;-73
2024/01/05 08:42:55;;;;;;;7.82;2.78;;;5.10;99.90;;;;;;5043624;28;20497;-72
2024/01/05 08:45:21;;;;;;;4.68;2.25;;;5.10;99.90;;;;;;5042394;28;20044;-73
2024/01/05 08:47:47;;;;;;;8.35;3.13;;;5.10;99.90;;;;;;5043790;28;20052;-76
2024/01/05 08:50:12;;;;;;;3.78;2.22;;;5.10;99.90;;;;;;5045989;28;20029;-72
2024/01/05 08:52:38;;;;;;;5.40;2.13;;;5.10;99.90;;;;;;5038667;28;20599;-72
2024/01/05 08:55:05;;;;;;;6.13;2.72;;;5.20;99.90;;;;;;5043050;28;20067;-72
2024/01/05 08:57:30;;;;;;;5.57;2.22;;;5.20;99.90;;;;;;5036556;28;20809;-72
2024/01/05 08:59:56;;;;;;;5.57;2.10;;;5.20;99.90;;;;;;5039285;28;20032;-72
2024/01/05 09:02:22;;;;;;;7.53;2.65;;;5.20;99.90;;;;;;5044630;28;20116;-72
2024/01/05 09:04:48;;;;;;;9.32;2.60;;;5.20;99.90;;;;;;5036775;28;20036;-73
2024/01/05 09:07:14;;;;;;;4.47;1.95;;;5.20;99.90;;;;;;5026712;28;20044;-73
2024/01/05 09:09:39;;;;;;;5.75;2.22;;;5.20;99.90;;;;;;5026480;28;20037;-72
2024/01/05 09:12:05;;;;;;;4.25;2.00;;;5.30;99.90;;;;;;5027275;28;20072;-73
2024/01/05 09:14:31;;;;;;;6.57;2.72;;;5.30;99.90;;;;;;5043909;28;20120;-72
2024/01/05 09:16:57;;;;;;;5.75;2.17;;;5.30;99.90;;;;;;5042286;28;20436;-73
2024/01/05 09:19:22;;;;;;;7.70;2.75;;;5.30;99.90;;;;;;5040435;28;20645;-72
2024/01/05 09:21:49;;;;;;;5.43;2.22;;;5.30;99.90;;;;;;5058060;28;20044;-73
2024/01/05 09:24:14;;;;;;;7.07;2.90;;;5.30;99.90;;;;;;5041040;28;20537;-73
2024/01/05 09:26:41;;;;;;;6.25;2.05;;;5.30;99.90;;;;;;5033653;28;20040;-73
2024/01/05 09:29:07;;;;;;;5.55;2.38;;;5.30;99.90;;;;;;5050477;28;20501;-72
2024/01/05 09:31:33;;;;;;;4.75;1.75;;;5.40;99.90;;;;;;5022724;28;20079;-73
2024/01/05 09:33:59;;;;;;;6.40;2.53;;;5.40;99.90;;;;;;5044816;28;20166;-73
2024/01/05 09:36:25;;;;;;;4.85;1.95;;;5.40;99.90;;;;;;5056339;28;20068;-71
2024/01/05 09:38:50;;;;;;;6.75;2.80;;;5.40;99.90;;;;;;5024050;28;20127;-72
2024/01/05 09:41:16;;;;;;;5.93;2.70;;;5.40;99.90;;;;;;5040265;28;20048;-73
2024/01/05 09:43:47;;;;;;;5.03;1.98;;;5.40;99.90;;;;;;5042772;28;20032;-72
2024/01/05 09:46:13;;;;;;;6.07;2.70;;;5.40;99.90;;;;;;5041096;28;20048;-72
2024/01/05 09:48:38;;;;;;;4.35;2.03;;;5.40;99.90;;;;;;5038910;28;20048;-72
2024/01/05 09:51:06;;;;;;;5.60;1.85;;;5.50;99.90;;;;;;5038494;28;20177;-72
2024/01/05 09:53:32;;;;;;;4.00;2.00;;;5.40;99.90;;;;;;5043068;28;20044;-72
2024/01/05 09:55:58;;;;;;;5.45;2.10;;;5.50;99.90;;;;;;5045421;28;20040;-72
2024/01/05 09:58:25;;;;;;;6.03;2.17;;;5.50;99.90;;;;;;5022634;28;20054;-72
2024/01/05 10:00:52;;;;;;;3.45;1.30;;;5.50;99.90;;;;;;5042664;28;20041;-72
2024/01/05 10:03:24;;;;;;;7.28;1.95;;;5.50;99.90;;;;;;5043090;28;20082;-72
2024/01/05 10:05:51;;;;;;;4.40;2.08;;;5.50;99.90;;;;;;5026230;28;20056;-72
2024/01/05 10:08:16;;;;;;;4.22;1.75;;;5.50;99.90;;;;;;5042660;28;20032;-72
2024/01/05 10:10:51;;;;;;;6.07;1.92;;;5.50;99.90;;;;;;5030537;28;20094;-72
2024/01/05 10:13:17;;;;;;;3.38;1.30;;;5.50;99.90;;;;;;5030027;28;21376;-72
2024/01/05 10:16:00;;;;;;;3.03;1.67;;;5.50;99.90;;;;;;5026549;28;20551;-73
2024/01/05 10:18:28;;;;;;;3.15;1.25;;;5.50;99.90;;;;;;5042040;28;20082;-73
2024/01/05 10:20:57;;;;;;;3.90;1.75;;;5.50;99.90;;;;;;5022688;28;20036;-73
2024/01/05 10:23:23;;;;;;;3.17;1.60;;;5.50;99.90;;;;;;5040520;28;20037;-73
2024/01/05 10:25:51;;;;;;;4.07;2.17;;;5.60;99.90;;;;;;5041881;28;20036;-73
2024/01/05 10:28:24;;;;;;;4.53;1.60;;;5.50;99.90;;;;;;5039437;28;20044;-73
2024/01/05 10:30:49;;;;;;;2.83;1.38;;;5.60;99.90;;;;;;5058047;28;20403;-72
2024/01/05 10:33:19;;;;;;;5.88;1.77;;;5.60;99.90;;;;;;5038762;28;20048;-73
2024/01/05 10:35:45;;;;;;;5.05;1.85;;;5.60;99.90;;;;;;5025294;28;20036;-72
2024/01/05 10:38:14;;;;;;;5.35;2.30;;;5.60;99.90;;;;;;5044280;28;20047;-73
2024/01/05 10:40:40;;;;;;;8.30;2.25;;;5.70;99.90;;;;;;5040691;28;20462;-72
2024/01/05 10:43:11;;;;;;;2.70;1.42;;;5.70;99.90;;;;;;5024214;28;21624;-73
2024/01/05 10:45:39;;;;;;;3.10;1.13;;;5.70;99.90;;;;;;5024212;28;20033;-72
2024/01/05 10:48:07;;;;;;;5.05;1.90;;;5.70;99.90;;;;;;5040606;28;20505;-72
2024/01/05 10:50:34;;;;;;;1.73;1.00;;;5.70;99.90;;;;;;5025166;28;20048;-72
2024/01/05 10:53:09;;;;;;;3.80;1.30;;;5.70;99.90;;;;;;5038133;28;20039;-72
2024/01/05 10:55:36;;;;;;;2.67;1.27;;;5.80;99.90;;;;;;5042485;28;20102;-73
2024/01/05 10:58:02;;;;;;;3.38;1.08;;;5.80;99.90;;;;;;5040172;28;20041;-73
2024/01/05 11:00:28;;;;;;;4.63;1.60;;;5.80;99.90;;;;;;5022946;28;20041;-73
2024/01/05 11:03:08;;;;;;;3.50;1.60;;;5.80;99.90;;;;;;5037632;28;20117;-72
2024/01/05 11:05:35;;;;;;;4.50;1.35;;;5.80;99.90;;;;;;5037241;28;20047;-72
2024/01/05 11:08:02;;;;;;;6.07;2.40;;;5.80;99.90;;;;;;5020812;28;20041;-73
2024/01/05 11:10:56;;;;;;;8.98;1.95;;;5.90;99.90;;;;;;5044466;28;20485;-73
2024/01/05 11:13:50;;;;;;;3.53;1.73;;;5.90;99.90;;;;;;5039777;28;20032;-77
2024/01/05 11:16:44;;;;;;;4.72;1.55;;;5.90;99.90;;;;;;5040934;28;20063;-73
2024/01/05 11:19:25;;;;;;;5.20;2.05;;;5.90;99.90;;;;;;5023578;28;21335;-73
2024/01/05 11:22:05;;;;;;;4.53;1.50;;;5.90;99.90;;;;;;5034985;28;20102;-76
2024/01/05 11:24:32;;;;;;;5.88;1.55;;;5.90;99.90;;;;;;5054673;28;20370;-73
2024/01/05 11:26:58;;;;;;;5.78;1.55;;;6.00;99.90;;;;;;5043255;28;20436;-73
2024/01/05 11:29:53;;;;;;;3.78;1.58;;;5.90;99.90;;;;;;5041712;28;20068;-73
2024/01/05 11:32:46;;;;;;;3.95;1.80;;;6.00;99.90;;;;;;5023745;28;20727;-73
2024/01/05 11:35:19;;;;;;;4.03;1.48;;;6.00;99.90;;;;;;5021959;28;20048;-73
2024/01/05 11:37:46;;;;;;;3.95;1.50;;;6.00;99.90;;;;;;5042380;28;20063;-72
2024/01/05 11:40:32;;;;;;;4.22;1.20;;;6.00;99.90;;;;;;5041049;28;20548;-73
2024/01/05 11:42:58;;;;;;;3.92;1.20;;;6.00;99.90;;;;;;5056065;28;20075;-73
2024/01/05 11:45:43;;;;;;;1.98;1.02;;;6.00;99.90;;;;;;5017649;28;20041;-72
2024/01/05 11:48:09;;;;;;;1.33;0.88;;;6.10;99.90;;;;;;5039017;28;20047;-72
2024/01/05 11:50:36;;;;;;;2.50;0.93;;;6.10;99.90;;;;;;5042206;28;20040;-72
2024/01/05 11:53:22;;;;;;;1.05;0.45;;;6.10;99.90;;;;;;5043489;28;20486;-72
2024/01/05 11:55:52;;;;;;;0.93;0.55;;;6.10;99.90;;;;;;5039602;28;20040;-73
2024/01/05 11:58:20;;;;;;;0.80;0.47;;;6.10;99.90;;;;;;5037798;28;20101;-72
2024/01/05 12:00:47;;;;;;;0.63;0.30;;;6.20;99.90;;;;;;5028873;28;20293;-72
2024/01/05 12:03:14;;;;;;;0.75;0.30;;;6.20;99.90;;;;;;5043351;28;20047;-72
2024/01/05 12:05:40;;;;;;;0.57;0.20;;;6.20;99.90;;;;;;5037357;28;20414;-72
2024/01/05 12:08:10;;;;;;;0.20;0.15;;;6.20;99.90;;;;;;5023002;28;20040;-73
2024/01/05 12:10:37;;;;;;;0.85;0.28;;;6.20;99.90;;;;;;5025692;28;20239;-72
2024/01/05 12:13:03;;;;;;;0.57;0.40;;;6.20;99.90;;;;;;5024658;28;20032;-72
2024/01/05 12:15:29;;;;;;;0.10;0.10;;;6.30;99.90;;;;;;5019568;28;20055;-72
2024/01/05 12:18:11;;;;;;;0.32;0.20;;;6.30;99.90;;;;;;5037690;28;20032;-72
2024/01/05 12:20:37;;;;;;;0.45;0.30;;;6.30;99.90;;;;;;5039842;28;20032;-72
2024/01/05 12:23:03;;;;;;;0.47;0.30;;;6.30;99.90;;;;;;5032488;28;20059;-72
2024/01/05 12:25:30;;;;;;;0.10;0.10;;;6.30;99.90;;;;;;5025853;28;20452;-73
2024/01/05 12:27:58;;;;;;;0.30;0.20;;;6.30;99.90;;;;;;5040783;28;20186;-72
2024/01/05 12:30:24;;;;;;;0.40;0.20;;;6.30;99.90;;;;;;5023680;28;20047;-73
2024/01/05 12:32:49;;;;;;;0.05;0.03;;;6.30;99.90;;;;;;5034269;28;20398;-72
2024/01/05 12:35:15;;;;;;;0.68;0.40;;;6.30;99.90;;;;;;5040126;28;20064;-72
2024/01/05 12:37:54;;;;;;;0.50;0.28;;;6.30;99.90;;;;;;5038960;28;20516;-72
2024/01/05 12:40:25;;;;;;;0.73;0.30;;;6.30;99.90;;;;;;5027820;28;20037;-72
2024/01/05 12:42:53;;;;;;;0.93;0.17;;;6.30;99.90;;;;;;5024907;28;20049;-72
2024/01/05 12:45:22;;;;;;;0.63;0.10;;;6.30;99.90;;;;;;5027134;28;20400;-72
2024/01/05 12:47:49;;;;;;;0.10;0.10;;;6.30;99.90;;;;;;5024997;28;20036;-72
2024/01/05 12:50:25;;;;;;;0.00;0.00;;;6.30;99.90;;;;;;5026751;28;20345;-72
2024/01/05 12:52:51;;;;;;;0.43;0.10;;;6.30;99.90;;;;;;5027959;28;20085;-73
2024/01/05 12:55:33;;;;;;;0.00;0.00;;;6.30;99.90;;;;;;5040872;28;20505;-72
2024/01/05 12:58:03;;;;;;;0.20;0.20;;;6.30;99.90;;;;;;5046435;28;20371;-72